Terminal Aerodrome Forecast
Issued by NWS

Home | Current Version | Previous Version | Text Only | Print | Product List | Glossary On
Versions: 1 2 3 4 5 6 7 8 9 10 11 12 13 14 15 16 17 18 19 20 21 22 23 24 25 26 27 28 29 30 31
836
FTUS42 KCAE 161125
TAFDNL
TAF
KDNL 161125Z 1612/1712 VRB03KT P6SM SCT060
      TEMPO 1612/1614 3SM BR
     FM161400 10004KT P6SM SCT008
      TEMPO 1614/1616 BKN008
     FM161700 10005KT P6SM SCT035
     FM170500 VRB03KT 4SM BR SCT012
     FM170900 VRB03KT 1 1/2SM BR OVC005=

USA.gov is the U.S. government's official web portal to all federal, state and local government web resources and services.